Saga Sapphire — 9HOF8 — position and weather

sailwx.info

Track history (hours):
 
Tides and Currents Weather Stations Pressure Air Temp Water Temp Dewpoint Dewpoint Depression Visibility Wind Speed Wind Dir Waves Ship Positions

Saga Sapphire

Last reported at 2019-Nov-19 22:29 UTC. Time now 2019-Nov-20 09:14 UTC.
Position N 36°03' W 005°20'.

Length 200 m; draft 8.3 m.

Type: Passenger vessel. MMSI: 256208000.

Date/timePositionNaut miles runAvg speedWind from/ knotsBaromVisibWave heightAir tempDewpointWater temp
2019-Nov-19 22:29N 36°03' W 005°20'2315.7
2019-Nov-19 21:00N 36°12' W 004°53'116 6.1
2019-Nov-19 02:00N 36°27' W 002°30'3010.9
2019-Nov-18 23:14N 36°38' W 001°55'31113.0
2019-Nov-17 23:16N 40°52' E 001°54'413.8
2019-Nov-17 23:00N 40°56' E 001°56'1414.2
2019-Nov-17 22:00N 41°08' E 002°05'14 3.1
2019-Nov-17 17:30N 41°21' E 002°11'0 0.0
2019-Nov-17 07:31N 41°21' E 002°11'18 5.9
2019-Nov-17 04:30N 41°23' E 002°34'713.4
2019-Nov-17 04:00N 41°26' E 002°42'714.1
2019-Nov-17 03:30N 41°30' E 002°50'7516.6
2019-Nov-16 23:00N 42°06' E 004°18'6813.5 320 / 191008.710.8 12.0 5.616.0
2019-Nov-16 18:00N 42°48' E 005°30'2518.6 010 / 81009.010.8 13.0 5.316.0
2019-Nov-16 16:38N 43°06' E 005°55'2 2.2
2019-Nov-16 15:56N 43°07' E 005°56'0 0.0
2019-Nov-16 15:20N 43°07' E 005°56'0 0.0
2019-Nov-16 07:30N 43°07' E 005°56'39 9.8
2019-Nov-16 03:30N 43°01' E 006°49'815.6
2019-Nov-16 03:00N 43°03' E 006°59'815.5
2019-Nov-16 02:30N 43°05' E 007°09'9915.3
2019-Nov-15 20:00N 43°28' E 009°22'1414.4
2019-Nov-15 19:01N 43°29' E 009°42'1515.0
2019-Nov-15 18:01N 43°31' E 010°02'12 4.6
2019-Nov-15 15:29N 43°33' E 010°18'0 0.0
2019-Nov-15 13:29N 43°33' E 010°18'0 0.0
2019-Nov-15 11:58N 43°33' E 010°18'0 0.0
2019-Nov-15 09:30N 43°33' E 010°18'0 0.0
2019-Nov-15 08:30N 43°33' E 010°18'0 0.0
2019-Nov-15 06:59N 43°33' E 010°18'19 7.7
2019-Nov-15 04:30N 43°16' E 010°09'1010.3
2019-Nov-15 03:30N 43°06' E 010°06'386 7.5
2019-Nov-12 23:49N 39°16' E 003°13'515.5
2019-Nov-12 23:30N 39°15' E 003°07'2214.4
2019-Nov-12 22:00N 39°24' E 002°42'10 2.5
2019-Nov-12 18:00N 39°33' E 002°38'0 0.0
2019-Nov-12 15:29N 39°33' E 002°38'0 0.0
2019-Nov-12 14:59N 39°33' E 002°38'0 0.0
2019-Nov-12 13:59N 39°33' E 002°38'0 0.0
2019-Nov-12 13:29N 39°33' E 002°38'0 0.0
2019-Nov-12 12:59N 39°33' E 002°38'0 0.0
2019-Nov-12 11:56N 39°33' E 002°38'0 0.0
2019-Nov-12 11:29N 39°33' E 002°38'0 0.0
2019-Nov-12 09:59N 39°33' E 002°38'0 0.0
2019-Nov-12 09:00N 39°33' E 002°38'0 0.0
2019-Nov-12 07:27N 39°33' E 002°38'5 3.4
2019-Nov-12 06:00N 39°28' E 002°37'39311.8
2019-Nov-10 20:50N 36°08' W 004°30'3314.0
2019-Nov-10 18:30N 36°07' W 005°10'  
Track history (hours):
 
Tides and Currents Weather Stations Pressure Air Temp Water Temp Dewpoint Dewpoint Depression Visibility Wind Speed Wind Dir Waves Ship Positions

Saga Sapphire

Last reported at 2019-Nov-19 22:29 UTC. Time now 2019-Nov-20 09:14 UTC.
Position N 36°03' W 005°20'.

Length 200 m; draft 8.3 m.

Type: Passenger vessel. MMSI: 256208000.

Date/timePositionNaut miles runAvg speedWind from/ knotsBaromVisibWave heightAir tempDewpointWater temp
2019-Nov-19 22:29N 36°03' W 005°20'2315.7
2019-Nov-19 21:00N 36°12' W 004°53'116 6.1
2019-Nov-19 02:00N 36°27' W 002°30'3010.9
2019-Nov-18 23:14N 36°38' W 001°55'31113.0
2019-Nov-17 23:16N 40°52' E 001°54'413.8
2019-Nov-17 23:00N 40°56' E 001°56'1414.2
2019-Nov-17 22:00N 41°08' E 002°05'14 3.1
2019-Nov-17 17:30N 41°21' E 002°11'0 0.0
2019-Nov-17 07:31N 41°21' E 002°11'18 5.9
2019-Nov-17 04:30N 41°23' E 002°34'713.4
2019-Nov-17 04:00N 41°26' E 002°42'714.1
2019-Nov-17 03:30N 41°30' E 002°50'7516.6
2019-Nov-16 23:00N 42°06' E 004°18'6813.5 320 / 191008.710.8 12.0 5.616.0
2019-Nov-16 18:00N 42°48' E 005°30'2518.6 010 / 81009.010.8 13.0 5.316.0
2019-Nov-16 16:38N 43°06' E 005°55'2 2.2
2019-Nov-16 15:56N 43°07' E 005°56'0 0.0
2019-Nov-16 15:20N 43°07' E 005°56'0 0.0
2019-Nov-16 07:30N 43°07' E 005°56'39 9.8
2019-Nov-16 03:30N 43°01' E 006°49'815.6
2019-Nov-16 03:00N 43°03' E 006°59'815.5
2019-Nov-16 02:30N 43°05' E 007°09'9915.3
2019-Nov-15 20:00N 43°28' E 009°22'1414.4
2019-Nov-15 19:01N 43°29' E 009°42'1515.0
2019-Nov-15 18:01N 43°31' E 010°02'12 4.6
2019-Nov-15 15:29N 43°33' E 010°18'0 0.0
2019-Nov-15 13:29N 43°33' E 010°18'0 0.0
2019-Nov-15 11:58N 43°33' E 010°18'0 0.0
2019-Nov-15 09:30N 43°33' E 010°18'0 0.0
2019-Nov-15 08:30N 43°33' E 010°18'0 0.0
2019-Nov-15 06:59N 43°33' E 010°18'19 7.7
2019-Nov-15 04:30N 43°16' E 010°09'1010.3
2019-Nov-15 03:30N 43°06' E 010°06'386 7.5
2019-Nov-12 23:49N 39°16' E 003°13'515.5
2019-Nov-12 23:30N 39°15' E 003°07'2214.4
2019-Nov-12 22:00N 39°24' E 002°42'10 2.5
2019-Nov-12 18:00N 39°33' E 002°38'0 0.0
2019-Nov-12 15:29N 39°33' E 002°38'0 0.0
2019-Nov-12 14:59N 39°33' E 002°38'0 0.0
2019-Nov-12 13:59N 39°33' E 002°38'0 0.0
2019-Nov-12 13:29N 39°33' E 002°38'0 0.0
2019-Nov-12 12:59N 39°33' E 002°38'0 0.0
2019-Nov-12 11:56N 39°33' E 002°38'0 0.0
2019-Nov-12 11:29N 39°33' E 002°38'0 0.0
2019-Nov-12 09:59N 39°33' E 002°38'0 0.0
2019-Nov-12 09:00N 39°33' E 002°38'0 0.0
2019-Nov-12 07:27N 39°33' E 002°38'5 3.4
2019-Nov-12 06:00N 39°28' E 002°37'39311.8
2019-Nov-10 20:50N 36°08' W 004°30'3314.0
2019-Nov-10 18:30N 36°07' W 005°10'  

Dump ship's entire track history